sensor_id;sensor_type;location;lat;lon;timestamp;P1;durP1;ratioP1;P2;durP2;ratioP2
23682;SDS011;24897;53.514;10.482;2023-04-03T00:02:07;42.13;;;36.10;;
23682;SDS011;24897;53.514;10.482;2023-04-03T00:04:51;42.10;;;35.93;;
23682;SDS011;24897;53.514;10.482;2023-04-03T00:07:35;43.80;;;36.70;;
23682;SDS011;24897;53.514;10.482;2023-04-03T00:10:19;42.10;;;35.63;;
23682;SDS011;24897;53.514;10.482;2023-04-03T00:13:04;41.03;;;35.13;;
23682;SDS011;24897;53.514;10.482;2023-04-03T00:15:49;45.87;;;35.57;;
23682;SDS011;24897;53.514;10.482;2023-04-03T00:18:33;41.83;;;34.77;;
23682;SDS011;24897;53.514;10.482;2023-04-03T00:21:17;43.93;;;35.07;;
23682;SDS011;24897;53.514;10.482;2023-04-03T00:24:02;43.47;;;35.10;;
23682;SDS011;24897;53.514;10.482;2023-04-03T00:26:46;41.00;;;35.40;;
23682;SDS011;24897;53.514;10.482;2023-04-03T00:29:30;44.07;;;34.77;;
23682;SDS011;24897;53.514;10.482;2023-04-03T00:32:14;41.63;;;36.00;;
23682;SDS011;24897;53.514;10.482;2023-04-03T00:34:58;45.17;;;36.63;;
23682;SDS011;24897;53.514;10.482;2023-04-03T00:37:43;45.13;;;36.23;;
23682;SDS011;24897;53.514;10.482;2023-04-03T00:40:32;44.00;;;36.07;;
23682;SDS011;24897;53.514;10.482;2023-04-03T00:43:19;44.40;;;36.40;;
23682;SDS011;24897;53.514;10.482;2023-04-03T00:46:10;45.67;;;35.10;;
23682;SDS011;24897;53.514;10.482;2023-04-03T00:48:54;41.30;;;34.47;;
23682;SDS011;24897;53.514;10.482;2023-04-03T00:51:38;44.53;;;36.63;;
23682;SDS011;24897;53.514;10.482;2023-04-03T00:54:23;43.13;;;35.70;;
23682;SDS011;24897;53.514;10.482;2023-04-03T00:57:08;43.90;;;36.27;;
23682;SDS011;24897;53.514;10.482;2023-04-03T00:59:57;46.60;;;36.40;;
23682;SDS011;24897;53.514;10.482;2023-04-03T01:02:45;42.70;;;36.03;;
23682;SDS011;24897;53.514;10.482;2023-04-03T01:05:29;43.90;;;35.73;;
23682;SDS011;24897;53.514;10.482;2023-04-03T01:08:13;42.93;;;36.40;;
23682;SDS011;24897;53.514;10.482;2023-04-03T01:10:57;41.03;;;35.10;;
23682;SDS011;24897;53.514;10.482;2023-04-03T01:13:41;40.20;;;34.40;;
23682;SDS011;24897;53.514;10.482;2023-04-03T01:16:26;42.73;;;33.80;;
23682;SDS011;24897;53.514;10.482;2023-04-03T01:19:13;43.73;;;34.60;;
23682;SDS011;24897;53.514;10.482;2023-04-03T01:22:19;45.43;;;33.83;;
23682;SDS011;24897;53.514;10.482;2023-04-03T01:25:13;42.90;;;34.23;;
23682;SDS011;24897;53.514;10.482;2023-04-03T01:27:58;44.50;;;33.53;;
23682;SDS011;24897;53.514;10.482;2023-04-03T01:30:53;43.33;;;33.97;;
23682;SDS011;24897;53.514;10.482;2023-04-03T01:33:43;40.53;;;33.30;;
23682;SDS011;24897;53.514;10.482;2023-04-03T01:36:29;40.13;;;33.87;;
23682;SDS011;24897;53.514;10.482;2023-04-03T01:39:14;41.43;;;34.43;;
23682;SDS011;24897;53.514;10.482;2023-04-03T01:41:58;45.37;;;34.43;;
23682;SDS011;24897;53.514;10.482;2023-04-03T01:44:43;41.43;;;34.77;;
23682;SDS011;24897;53.514;10.482;2023-04-03T01:47:28;41.37;;;34.93;;
23682;SDS011;24897;53.514;10.482;2023-04-03T01:50:16;41.63;;;34.60;;
23682;SDS011;24897;53.514;10.482;2023-04-03T01:53:00;41.93;;;34.87;;
23682;SDS011;24897;53.514;10.482;2023-04-03T01:55:44;42.57;;;35.87;;
23682;SDS011;24897;53.514;10.482;2023-04-03T01:58:28;42.93;;;35.07;;
23682;SDS011;24897;53.514;10.482;2023-04-03T02:01:13;45.33;;;35.10;;
23682;SDS011;24897;53.514;10.482;2023-04-03T02:03:57;42.37;;;34.43;;
23682;SDS011;24897;53.514;10.482;2023-04-03T02:06:41;41.97;;;35.10;;
23682;SDS011;24897;53.514;10.482;2023-04-03T02:09:26;43.53;;;33.47;;
23682;SDS011;24897;53.514;10.482;2023-04-03T02:12:10;41.70;;;34.57;;
23682;SDS011;24897;53.514;10.482;2023-04-03T02:14:54;42.97;;;34.37;;
23682;SDS011;24897;53.514;10.482;2023-04-03T02:17:38;43.27;;;34.53;;
23682;SDS011;24897;53.514;10.482;2023-04-03T02:20:23;44.73;;;35.10;;
23682;SDS011;24897;53.514;10.482;2023-04-03T02:23:07;43.77;;;34.87;;
23682;SDS011;24897;53.514;10.482;2023-04-03T02:25:51;43.50;;;35.90;;
23682;SDS011;24897;53.514;10.482;2023-04-03T02:28:35;44.67;;;34.40;;
23682;SDS011;24897;53.514;10.482;2023-04-03T02:31:20;40.07;;;33.53;;
23682;SDS011;24897;53.514;10.482;2023-04-03T02:34:05;42.10;;;34.30;;
23682;SDS011;24897;53.514;10.482;2023-04-03T02:36:49;42.53;;;34.13;;
23682;SDS011;24897;53.514;10.482;2023-04-03T02:39:34;44.10;;;34.50;;
23682;SDS011;24897;53.514;10.482;2023-04-03T02:42:18;40.33;;;34.50;;
23682;SDS011;24897;53.514;10.482;2023-04-03T02:45:03;42.93;;;33.80;;
23682;SDS011;24897;53.514;10.482;2023-04-03T02:47:48;43.43;;;34.50;;
23682;SDS011;24897;53.514;10.482;2023-04-03T02:50:32;45.97;;;34.33;;
23682;SDS011;24897;53.514;10.482;2023-04-03T02:53:16;41.37;;;33.63;;
23682;SDS011;24897;53.514;10.482;2023-04-03T02:56:01;42.37;;;34.90;;
23682;SDS011;24897;53.514;10.482;2023-04-03T02:58:45;43.27;;;34.83;;
23682;SDS011;24897;53.514;10.482;2023-04-03T03:01:30;39.93;;;34.13;;
23682;SDS011;24897;53.514;10.482;2023-04-03T03:04:16;43.67;;;35.00;;
23682;SDS011;24897;53.514;10.482;2023-04-03T03:07:00;42.80;;;35.47;;
23682;SDS011;24897;53.514;10.482;2023-04-03T03:09:44;44.57;;;35.23;;
23682;SDS011;24897;53.514;10.482;2023-04-03T03:12:29;42.67;;;34.63;;
23682;SDS011;24897;53.514;10.482;2023-04-03T03:15:13;42.53;;;34.70;;
23682;SDS011;24897;53.514;10.482;2023-04-03T03:17:59;44.33;;;34.97;;
23682;SDS011;24897;53.514;10.482;2023-04-03T03:20:44;45.77;;;35.50;;
23682;SDS011;24897;53.514;10.482;2023-04-03T03:23:29;42.27;;;34.60;;
23682;SDS011;24897;53.514;10.482;2023-04-03T03:26:16;45.73;;;35.77;;
23682;SDS011;24897;53.514;10.482;2023-04-03T03:29:00;41.03;;;35.13;;
23682;SDS011;24897;53.514;10.482;2023-04-03T03:31:44;41.43;;;35.47;;
23682;SDS011;24897;53.514;10.482;2023-04-03T03:34:29;42.93;;;37.20;;
23682;SDS011;24897;53.514;10.482;2023-04-03T03:37:13;41.50;;;35.40;;
23682;SDS011;24897;53.514;10.482;2023-04-03T03:39:57;43.70;;;35.43;;
23682;SDS011;24897;53.514;10.482;2023-04-03T03:42:41;42.40;;;34.97;;
23682;SDS011;24897;53.514;10.482;2023-04-03T03:45:25;40.77;;;33.67;;
23682;SDS011;24897;53.514;10.482;2023-04-03T03:48:09;48.23;;;34.97;;
23682;SDS011;24897;53.514;10.482;2023-04-03T03:50:53;44.13;;;36.43;;
23682;SDS011;24897;53.514;10.482;2023-04-03T03:53:38;43.50;;;35.13;;
23682;SDS011;24897;53.514;10.482;2023-04-03T03:56:22;40.93;;;34.00;;
23682;SDS011;24897;53.514;10.482;2023-04-03T03:59:06;42.23;;;34.60;;
23682;SDS011;24897;53.514;10.482;2023-04-03T04:01:50;47.00;;;35.60;;
23682;SDS011;24897;53.514;10.482;2023-04-03T04:04:34;45.13;;;35.33;;
23682;SDS011;24897;53.514;10.482;2023-04-03T04:07:18;46.07;;;34.83;;
23682;SDS011;24897;53.514;10.482;2023-04-03T04:10:02;40.57;;;35.10;;
23682;SDS011;24897;53.514;10.482;2023-04-03T04:12:47;45.57;;;34.50;;
23682;SDS011;24897;53.514;10.482;2023-04-03T04:15:32;118.60;;;108.90;;
23682;SDS011;24897;53.514;10.482;2023-04-03T04:18:17;113.90;;;104.40;;
23682;SDS011;24897;53.514;10.482;2023-04-03T04:21:03;110.63;;;101.33;;
23682;SDS011;24897;53.514;10.482;2023-04-03T04:23:47;112.93;;;103.80;;
23682;SDS011;24897;53.514;10.482;2023-04-03T04:26:32;107.40;;;98.43;;
23682;SDS011;24897;53.514;10.482;2023-04-03T04:29:16;108.57;;;99.73;;
23682;SDS011;24897;53.514;10.482;2023-04-03T04:32:00;107.80;;;98.90;;
23682;SDS011;24897;53.514;10.482;2023-04-03T04:34:46;98.07;;;90.07;;
23682;SDS011;24897;53.514;10.482;2023-04-03T04:37:30;95.20;;;87.27;;
23682;SDS011;24897;53.514;10.482;2023-04-03T04:40:14;103.93;;;94.93;;
23682;SDS011;24897;53.514;10.482;2023-04-03T04:42:59;103.17;;;94.53;;
23682;SDS011;24897;53.514;10.482;2023-04-03T04:45:44;102.57;;;94.07;;
23682;SDS011;24897;53.514;10.482;2023-04-03T04:48:28;102.87;;;93.97;;
23682;SDS011;24897;53.514;10.482;2023-04-03T04:51:13;101.53;;;92.90;;
23682;SDS011;24897;53.514;10.482;2023-04-03T04:53:58;103.97;;;95.27;;
23682;SDS011;24897;53.514;10.482;2023-04-03T04:56:42;105.33;;;96.43;;
23682;SDS011;24897;53.514;10.482;2023-04-03T04:59:26;103.13;;;94.63;;
23682;SDS011;24897;53.514;10.482;2023-04-03T05:02:10;45.83;;;34.87;;
23682;SDS011;24897;53.514;10.482;2023-04-03T05:04:54;45.20;;;37.37;;
23682;SDS011;24897;53.514;10.482;2023-04-03T05:07:38;43.63;;;34.93;;
23682;SDS011;24897;53.514;10.482;2023-04-03T05:10:22;45.27;;;35.97;;
23682;SDS011;24897;53.514;10.482;2023-04-03T05:13:06;45.10;;;35.07;;
23682;SDS011;24897;53.514;10.482;2023-04-03T05:15:50;42.03;;;34.20;;
23682;SDS011;24897;53.514;10.482;2023-04-03T05:18:34;45.50;;;34.83;;
23682;SDS011;24897;53.514;10.482;2023-04-03T05:21:18;41.00;;;33.60;;
23682;SDS011;24897;53.514;10.482;2023-04-03T05:24:03;41.90;;;34.00;;
23682;SDS011;24897;53.514;10.482;2023-04-03T05:26:48;43.83;;;34.30;;
23682;SDS011;24897;53.514;10.482;2023-04-03T05:29:32;43.87;;;33.77;;
23682;SDS011;24897;53.514;10.482;2023-04-03T05:32:17;41.13;;;34.17;;
23682;SDS011;24897;53.514;10.482;2023-04-03T05:35:01;44.33;;;36.33;;
23682;SDS011;24897;53.514;10.482;2023-04-03T05:37:45;45.63;;;36.17;;
23682;SDS011;24897;53.514;10.482;2023-04-03T05:40:29;43.20;;;33.40;;
23682;SDS011;24897;53.514;10.482;2023-04-03T05:43:13;42.57;;;35.37;;
23682;SDS011;24897;53.514;10.482;2023-04-03T05:45:57;42.90;;;35.43;;
23682;SDS011;24897;53.514;10.482;2023-04-03T05:48:42;43.53;;;36.07;;
23682;SDS011;24897;53.514;10.482;2023-04-03T05:51:32;45.53;;;36.60;;
23682;SDS011;24897;53.514;10.482;2023-04-03T05:54:19;42.17;;;36.30;;
23682;SDS011;24897;53.514;10.482;2023-04-03T05:57:06;43.50;;;38.33;;
23682;SDS011;24897;53.514;10.482;2023-04-03T05:59:50;47.83;;;38.57;;
23682;SDS011;24897;53.514;10.482;2023-04-03T06:02:35;44.20;;;38.30;;
23682;SDS011;24897;53.514;10.482;2023-04-03T06:05:19;43.53;;;37.10;;
23682;SDS011;24897;53.514;10.482;2023-04-03T06:08:03;43.00;;;36.73;;
23682;SDS011;24897;53.514;10.482;2023-04-03T06:10:47;44.80;;;38.20;;
23682;SDS011;24897;53.514;10.482;2023-04-03T06:13:31;42.37;;;37.50;;
23682;SDS011;24897;53.514;10.482;2023-04-03T06:16:17;45.10;;;40.20;;
23682;SDS011;24897;53.514;10.482;2023-04-03T06:19:01;42.67;;;37.97;;
23682;SDS011;24897;53.514;10.482;2023-04-03T06:21:46;46.60;;;38.10;;
23682;SDS011;24897;53.514;10.482;2023-04-03T06:24:30;45.47;;;38.07;;
23682;SDS011;24897;53.514;10.482;2023-04-03T06:27:15;44.50;;;37.77;;
23682;SDS011;24897;53.514;10.482;2023-04-03T06:30:00;41.47;;;36.93;;
23682;SDS011;24897;53.514;10.482;2023-04-03T06:32:44;39.07;;;31.90;;
23682;SDS011;24897;53.514;10.482;2023-04-03T06:35:28;37.90;;;33.47;;
23682;SDS011;24897;53.514;10.482;2023-04-03T06:38:13;37.57;;;31.97;;
23682;SDS011;24897;53.514;10.482;2023-04-03T06:40:57;39.03;;;32.90;;
23682;SDS011;24897;53.514;10.482;2023-04-03T06:43:43;37.33;;;32.40;;
23682;SDS011;24897;53.514;10.482;2023-04-03T06:46:28;36.83;;;32.83;;
23682;SDS011;24897;53.514;10.482;2023-04-03T06:49:12;36.40;;;31.90;;
23682;SDS011;24897;53.514;10.482;2023-04-03T06:51:57;36.50;;;32.70;;
23682;SDS011;24897;53.514;10.482;2023-04-03T06:54:41;35.67;;;31.90;;
23682;SDS011;24897;53.514;10.482;2023-04-03T06:57:25;34.83;;;30.20;;
23682;SDS011;24897;53.514;10.482;2023-04-03T07:00:10;33.87;;;30.13;;
23682;SDS011;24897;53.514;10.482;2023-04-03T07:02:55;33.67;;;30.20;;
23682;SDS011;24897;53.514;10.482;2023-04-03T07:05:41;32.43;;;29.13;;
23682;SDS011;24897;53.514;10.482;2023-04-03T07:08:28;34.03;;;28.50;;
23682;SDS011;24897;53.514;10.482;2023-04-03T07:11:12;31.57;;;28.17;;
23682;SDS011;24897;53.514;10.482;2023-04-03T07:13:56;27.90;;;25.10;;
23682;SDS011;24897;53.514;10.482;2023-04-03T07:16:41;24.53;;;22.53;;
23682;SDS011;24897;53.514;10.482;2023-04-03T07:19:25;21.53;;;19.50;;
23682;SDS011;24897;53.514;10.482;2023-04-03T07:22:11;20.50;;;18.60;;
23682;SDS011;24897;53.514;10.482;2023-04-03T07:24:55;20.27;;;18.43;;
23682;SDS011;24897;53.514;10.482;2023-04-03T07:27:40;20.27;;;18.30;;
23682;SDS011;24897;53.514;10.482;2023-04-03T07:30:24;19.87;;;17.97;;
23682;SDS011;24897;53.514;10.482;2023-04-03T07:33:08;18.40;;;16.80;;
23682;SDS011;24897;53.514;10.482;2023-04-03T07:35:53;18.20;;;16.60;;
23682;SDS011;24897;53.514;10.482;2023-04-03T07:38:37;18.33;;;16.77;;
23682;SDS011;24897;53.514;10.482;2023-04-03T07:41:21;17.73;;;16.03;;
23682;SDS011;24897;53.514;10.482;2023-04-03T07:44:06;17.70;;;16.20;;
23682;SDS011;24897;53.514;10.482;2023-04-03T07:46:53;17.00;;;15.50;;
23682;SDS011;24897;53.514;10.482;2023-04-03T07:49:41;17.43;;;15.80;;
23682;SDS011;24897;53.514;10.482;2023-04-03T07:52:25;17.23;;;15.40;;
23682;SDS011;24897;53.514;10.482;2023-04-03T07:55:10;15.83;;;14.50;;
23682;SDS011;24897;53.514;10.482;2023-04-03T07:57:54;16.93;;;14.50;;
23682;SDS011;24897;53.514;10.482;2023-04-03T08:00:42;17.00;;;15.30;;
23682;SDS011;24897;53.514;10.482;2023-04-03T08:03:26;16.67;;;15.07;;
23682;SDS011;24897;53.514;10.482;2023-04-03T08:06:11;16.70;;;15.30;;
23682;SDS011;24897;53.514;10.482;2023-04-03T08:08:56;16.77;;;14.73;;
23682;SDS011;24897;53.514;10.482;2023-04-03T08:11:41;15.90;;;14.60;;
23682;SDS011;24897;53.514;10.482;2023-04-03T08:14:26;16.07;;;14.57;;
23682;SDS011;24897;53.514;10.482;2023-04-03T08:17:10;16.33;;;14.73;;
23682;SDS011;24897;53.514;10.482;2023-04-03T08:19:57;16.50;;;14.97;;
23682;SDS011;24897;53.514;10.482;2023-04-03T08:22:42;15.10;;;13.87;;
23682;SDS011;24897;53.514;10.482;2023-04-03T08:25:26;15.27;;;13.93;;
23682;SDS011;24897;53.514;10.482;2023-04-03T08:28:11;15.53;;;14.07;;
23682;SDS011;24897;53.514;10.482;2023-04-03T08:30:56;15.10;;;13.90;;
23682;SDS011;24897;53.514;10.482;2023-04-03T08:33:46;15.50;;;14.10;;
23682;SDS011;24897;53.514;10.482;2023-04-03T08:36:31;15.77;;;14.30;;
23682;SDS011;24897;53.514;10.482;2023-04-03T08:39:16;15.10;;;13.70;;
23682;SDS011;24897;53.514;10.482;2023-04-03T08:42:02;14.67;;;13.57;;
23682;SDS011;24897;53.514;10.482;2023-04-03T08:50:50;15.00;;;13.90;;
23682;SDS011;24897;53.514;10.482;2023-04-03T08:53:39;15.07;;;13.90;;
23682;SDS011;24897;53.514;10.482;2023-04-03T08:56:27;15.37;;;14.17;;
23682;SDS011;24897;53.514;10.482;2023-04-03T08:59:24;15.00;;;13.80;;
23682;SDS011;24897;53.514;10.482;2023-04-03T09:02:24;15.17;;;13.97;;
23682;SDS011;24897;53.514;10.482;2023-04-03T09:05:18;15.23;;;14.03;;
23682;SDS011;24897;53.514;10.482;2023-04-03T09:11:07;15.00;;;13.73;;
23682;SDS011;24897;53.514;10.482;2023-04-03T09:14:15;15.10;;;13.90;;
23682;SDS011;24897;53.514;10.482;2023-04-03T09:17:23;15.53;;;14.23;;
23682;SDS011;24897;53.514;10.482;2023-04-03T09:23:28;15.30;;;14.00;;
23682;SDS011;24897;53.514;10.482;2023-04-03T09:26:18;15.07;;;13.80;;
23682;SDS011;24897;53.514;10.482;2023-04-03T09:29:06;15.60;;;14.00;;
23682;SDS011;24897;53.514;10.482;2023-04-03T09:32:01;15.23;;;14.03;;
23682;SDS011;24897;53.514;10.482;2023-04-03T09:34:53;15.33;;;14.17;;
23682;SDS011;24897;53.514;10.482;2023-04-03T09:37:41;15.00;;;13.80;;
23682;SDS011;24897;53.514;10.482;2023-04-03T09:40:31;14.90;;;13.80;;
23682;SDS011;24897;53.514;10.482;2023-04-03T09:43:26;14.40;;;13.20;;
23682;SDS011;24897;53.514;10.482;2023-04-03T09:46:17;14.93;;;13.63;;
23682;SDS011;24897;53.514;10.482;2023-04-03T09:49:23;14.63;;;13.53;;
23682;SDS011;24897;53.514;10.482;2023-04-03T09:52:23;14.97;;;13.87;;
23682;SDS011;24897;53.514;10.482;2023-04-03T09:55:16;15.50;;;14.20;;
23682;SDS011;24897;53.514;10.482;2023-04-03T09:58:03;15.67;;;14.27;;
23682;SDS011;24897;53.514;10.482;2023-04-03T10:00:53;15.07;;;13.80;;
23682;SDS011;24897;53.514;10.482;2023-04-03T10:03:39;15.30;;;14.00;;
23682;SDS011;24897;53.514;10.482;2023-04-03T10:06:31;15.23;;;14.03;;
23682;SDS011;24897;53.514;10.482;2023-04-03T10:12:13;15.47;;;14.17;;
23682;SDS011;24897;53.514;10.482;2023-04-03T10:15:10;14.83;;;13.50;;
23682;SDS011;24897;53.514;10.482;2023-04-03T10:17:58;14.10;;;13.00;;
23682;SDS011;24897;53.514;10.482;2023-04-03T10:20:49;14.60;;;13.40;;
23682;SDS011;24897;53.514;10.482;2023-04-03T10:23:48;15.10;;;13.70;;
23682;SDS011;24897;53.514;10.482;2023-04-03T10:26:58;15.43;;;14.20;;
23682;SDS011;24897;53.514;10.482;2023-04-03T10:29:51;15.23;;;13.93;;
23682;SDS011;24897;53.514;10.482;2023-04-03T10:54:11;15.03;;;13.63;;
23682;SDS011;24897;53.514;10.482;2023-04-03T10:57:20;14.33;;;13.13;;
23682;SDS011;24897;53.514;10.482;2023-04-03T11:06:18;14.40;;;13.30;;
23682;SDS011;24897;53.514;10.482;2023-04-03T11:12:06;15.33;;;14.23;;
23682;SDS011;24897;53.514;10.482;2023-04-03T11:15:00;15.00;;;13.90;;
23682;SDS011;24897;53.514;10.482;2023-04-03T11:17:48;16.13;;;14.63;;
23682;SDS011;24897;53.514;10.482;2023-04-03T11:20:34;15.20;;;13.90;;
23682;SDS011;24897;53.514;10.482;2023-04-03T11:23:21;15.77;;;14.53;;
23682;SDS011;24897;53.514;10.482;2023-04-03T11:26:13;14.97;;;13.87;;
23682;SDS011;24897;53.514;10.482;2023-04-03T11:29:05;15.50;;;14.30;;
23682;SDS011;24897;53.514;10.482;2023-04-03T11:35:17;14.60;;;13.50;;
23682;SDS011;24897;53.514;10.482;2023-04-03T11:38:03;14.63;;;13.33;;
23682;SDS011;24897;53.514;10.482;2023-04-03T11:40:49;14.50;;;13.30;;
23682;SDS011;24897;53.514;10.482;2023-04-03T11:43:37;14.27;;;13.00;;
23682;SDS011;24897;53.514;10.482;2023-04-03T11:46:53;14.70;;;13.50;;
23682;SDS011;24897;53.514;10.482;2023-04-03T11:58:33;14.87;;;13.67;;
23682;SDS011;24897;53.514;10.482;2023-04-03T12:04:37;15.43;;;14.03;;
23682;SDS011;24897;53.514;10.482;2023-04-03T12:07:21;14.97;;;13.77;;
23682;SDS011;24897;53.514;10.482;2023-04-03T12:10:14;14.93;;;13.80;;
23682;SDS011;24897;53.514;10.482;2023-04-03T12:13:00;15.67;;;14.30;;
23682;SDS011;24897;53.514;10.482;2023-04-03T12:15:50;15.07;;;13.77;;
23682;SDS011;24897;53.514;10.482;2023-04-03T12:24:32;15.50;;;14.07;;
23682;SDS011;24897;53.514;10.482;2023-04-03T12:30:14;15.07;;;13.77;;
23682;SDS011;24897;53.514;10.482;2023-04-03T12:33:11;15.00;;;13.90;;
23682;SDS011;24897;53.514;10.482;2023-04-03T12:36:22;15.10;;;13.73;;
23682;SDS011;24897;53.514;10.482;2023-04-03T12:39:24;14.80;;;13.60;;
23682;SDS011;24897;53.514;10.482;2023-04-03T12:45:27;15.70;;;14.30;;
23682;SDS011;24897;53.514;10.482;2023-04-03T12:48:13;15.43;;;14.03;;
23682;SDS011;24897;53.514;10.482;2023-04-03T12:50:59;15.00;;;13.90;;
23682;SDS011;24897;53.514;10.482;2023-04-03T12:53:46;15.53;;;14.23;;
23682;SDS011;24897;53.514;10.482;2023-04-03T12:56:31;15.70;;;14.40;;
23682;SDS011;24897;53.514;10.482;2023-04-03T12:59:18;15.70;;;14.40;;
23682;SDS011;24897;53.514;10.482;2023-04-03T13:02:12;15.90;;;14.60;;
23682;SDS011;24897;53.514;10.482;2023-04-03T13:05:15;15.20;;;14.00;;
23682;SDS011;24897;53.514;10.482;2023-04-03T13:08:11;15.23;;;14.03;;
23682;SDS011;24897;53.514;10.482;2023-04-03T13:13:56;15.60;;;14.40;;
23682;SDS011;24897;53.514;10.482;2023-04-03T13:16:52;14.67;;;13.57;;
23682;SDS011;24897;53.514;10.482;2023-04-03T13:19:42;14.87;;;13.57;;
23682;SDS011;24897;53.514;10.482;2023-04-03T13:25:17;14.93;;;13.60;;
23682;SDS011;24897;53.514;10.482;2023-04-03T13:28:05;15.57;;;14.17;;
23682;SDS011;24897;53.514;10.482;2023-04-03T13:33:43;16.00;;;14.60;;
23682;SDS011;24897;53.514;10.482;2023-04-03T13:39:37;15.37;;;14.20;;
23682;SDS011;24897;53.514;10.482;2023-04-03T13:42:24;15.20;;;13.90;;
23682;SDS011;24897;53.514;10.482;2023-04-03T13:45:27;15.27;;;14.07;;
23682;SDS011;24897;53.514;10.482;2023-04-03T13:48:19;15.33;;;13.97;;
23682;SDS011;24897;53.514;10.482;2023-04-03T13:54:01;14.63;;;13.50;;
23682;SDS011;24897;53.514;10.482;2023-04-03T13:57:01;15.30;;;13.90;;
23682;SDS011;24897;53.514;10.482;2023-04-03T13:59:47;15.10;;;13.70;;
23682;SDS011;24897;53.514;10.482;2023-04-03T14:02:32;15.23;;;13.77;;
23682;SDS011;24897;53.514;10.482;2023-04-03T14:05:17;14.83;;;13.73;;
23682;SDS011;24897;53.514;10.482;2023-04-03T14:08:04;14.33;;;13.33;;
23682;SDS011;24897;53.514;10.482;2023-04-03T14:10:51;15.07;;;13.80;;
23682;SDS011;24897;53.514;10.482;2023-04-03T14:13:35;15.20;;;14.00;;
23682;SDS011;24897;53.514;10.482;2023-04-03T14:16:20;14.53;;;13.40;;
23682;SDS011;24897;53.514;10.482;2023-04-03T14:19:06;14.90;;;13.63;;
23682;SDS011;24897;53.514;10.482;2023-04-03T14:21:58;14.70;;;13.43;;
23682;SDS011;24897;53.514;10.482;2023-04-03T14:24:45;14.30;;;13.20;;
23682;SDS011;24897;53.514;10.482;2023-04-03T14:27:34;15.40;;;14.10;;
23682;SDS011;24897;53.514;10.482;2023-04-03T14:30:27;16.50;;;15.30;;
23682;SDS011;24897;53.514;10.482;2023-04-03T14:33:14;16.87;;;15.67;;
23682;SDS011;24897;53.514;10.482;2023-04-03T14:36:00;16.60;;;15.40;;
23682;SDS011;24897;53.514;10.482;2023-04-03T14:38:46;17.40;;;16.13;;
23682;SDS011;24897;53.514;10.482;2023-04-03T14:41:32;17.60;;;16.10;;
23682;SDS011;24897;53.514;10.482;2023-04-03T14:44:17;17.40;;;16.00;;
23682;SDS011;24897;53.514;10.482;2023-04-03T14:47:01;17.37;;;16.00;;
23682;SDS011;24897;53.514;10.482;2023-04-03T14:49:46;17.23;;;15.90;;
23682;SDS011;24897;53.514;10.482;2023-04-03T14:52:32;17.60;;;16.00;;
23682;SDS011;24897;53.514;10.482;2023-04-03T14:55:19;17.17;;;15.77;;
23682;SDS011;24897;53.514;10.482;2023-04-03T14:58:05;17.20;;;15.90;;
23682;SDS011;24897;53.514;10.482;2023-04-03T15:00:49;17.10;;;15.80;;
23682;SDS011;24897;53.514;10.482;2023-04-03T15:03:33;17.43;;;16.07;;
23682;SDS011;24897;53.514;10.482;2023-04-03T15:06:18;17.37;;;16.00;;
23682;SDS011;24897;53.514;10.482;2023-04-03T15:09:03;17.13;;;15.83;;
23682;SDS011;24897;53.514;10.482;2023-04-03T15:11:48;16.40;;;15.20;;
23682;SDS011;24897;53.514;10.482;2023-04-03T15:14:33;16.90;;;15.50;;
23682;SDS011;24897;53.514;10.482;2023-04-03T15:17:19;17.23;;;15.90;;
23682;SDS011;24897;53.514;10.482;2023-04-03T15:20:12;16.80;;;15.30;;
23682;SDS011;24897;53.514;10.482;2023-04-03T15:22:58;16.47;;;15.13;;
23682;SDS011;24897;53.514;10.482;2023-04-03T15:25:45;16.43;;;15.20;;
23682;SDS011;24897;53.514;10.482;2023-04-03T15:28:39;16.60;;;15.20;;
23682;SDS011;24897;53.514;10.482;2023-04-03T15:31:25;16.60;;;15.40;;
23682;SDS011;24897;53.514;10.482;2023-04-03T15:34:09;16.77;;;15.27;;
23682;SDS011;24897;53.514;10.482;2023-04-03T15:36:54;17.20;;;15.93;;
23682;SDS011;24897;53.514;10.482;2023-04-03T15:39:39;16.73;;;15.50;;
23682;SDS011;24897;53.514;10.482;2023-04-03T15:42:23;17.03;;;15.60;;
23682;SDS011;24897;53.514;10.482;2023-04-03T15:45:08;17.17;;;15.87;;
23682;SDS011;24897;53.514;10.482;2023-04-03T15:47:52;16.27;;;14.97;;
23682;SDS011;24897;53.514;10.482;2023-04-03T15:50:37;15.07;;;14.03;;
23682;SDS011;24897;53.514;10.482;2023-04-03T15:53:21;17.23;;;15.93;;
23682;SDS011;24897;53.514;10.482;2023-04-03T15:56:05;16.43;;;15.03;;
23682;SDS011;24897;53.514;10.482;2023-04-03T15:58:51;16.83;;;15.43;;
23682;SDS011;24897;53.514;10.482;2023-04-03T16:01:36;16.60;;;15.30;;
23682;SDS011;24897;53.514;10.482;2023-04-03T16:04:21;16.90;;;15.57;;
23682;SDS011;24897;53.514;10.482;2023-04-03T16:07:05;15.80;;;14.57;;
23682;SDS011;24897;53.514;10.482;2023-04-03T16:09:49;17.00;;;15.20;;
23682;SDS011;24897;53.514;10.482;2023-04-03T16:12:33;16.43;;;15.13;;
23682;SDS011;24897;53.514;10.482;2023-04-03T16:15:21;17.20;;;16.00;;
23682;SDS011;24897;53.514;10.482;2023-04-03T16:18:07;17.47;;;16.07;;
23682;SDS011;24897;53.514;10.482;2023-04-03T16:20:53;17.53;;;15.90;;
23682;SDS011;24897;53.514;10.482;2023-04-03T16:23:37;17.40;;;15.80;;
23682;SDS011;24897;53.514;10.482;2023-04-03T16:26:22;17.13;;;15.83;;
23682;SDS011;24897;53.514;10.482;2023-04-03T16:29:06;16.67;;;15.33;;
23682;SDS011;24897;53.514;10.482;2023-04-03T16:31:53;17.27;;;15.77;;
23682;SDS011;24897;53.514;10.482;2023-04-03T16:34:37;16.37;;;14.97;;
23682;SDS011;24897;53.514;10.482;2023-04-03T16:37:24;16.20;;;15.00;;
23682;SDS011;24897;53.514;10.482;2023-04-03T16:40:09;17.10;;;15.70;;
23682;SDS011;24897;53.514;10.482;2023-04-03T16:42:53;17.00;;;15.50;;
23682;SDS011;24897;53.514;10.482;2023-04-03T16:45:38;16.57;;;15.37;;
23682;SDS011;24897;53.514;10.482;2023-04-03T16:48:22;17.03;;;15.60;;
23682;SDS011;24897;53.514;10.482;2023-04-03T16:51:07;17.00;;;15.70;;
23682;SDS011;24897;53.514;10.482;2023-04-03T16:53:51;17.07;;;15.67;;
23682;SDS011;24897;53.514;10.482;2023-04-03T16:56:35;16.67;;;15.37;;
23682;SDS011;24897;53.514;10.482;2023-04-03T16:59:19;16.97;;;15.67;;
23682;SDS011;24897;53.514;10.482;2023-04-03T17:02:06;17.37;;;15.80;;
23682;SDS011;24897;53.514;10.482;2023-04-03T17:04:52;16.90;;;15.60;;
23682;SDS011;24897;53.514;10.482;2023-04-03T17:07:37;17.00;;;15.60;;
23682;SDS011;24897;53.514;10.482;2023-04-03T17:10:21;16.50;;;15.10;;
23682;SDS011;24897;53.514;10.482;2023-04-03T17:13:05;17.50;;;15.77;;
23682;SDS011;24897;53.514;10.482;2023-04-03T17:15:49;16.63;;;15.13;;
23682;SDS011;24897;53.514;10.482;2023-04-03T17:18:34;16.53;;;15.10;;
23682;SDS011;24897;53.514;10.482;2023-04-03T17:21:21;16.30;;;14.60;;
23682;SDS011;24897;53.514;10.482;2023-04-03T17:24:06;16.70;;;15.30;;
23682;SDS011;24897;53.514;10.482;2023-04-03T17:26:56;16.97;;;15.57;;
23682;SDS011;24897;53.514;10.482;2023-04-03T17:29:40;18.07;;;16.43;;